sensor_id;sensor_type;location;lat;lon;timestamp;pressure;altitude;pressure_sealevel;temperature;humidity
70952;BME280;69214;55.880;37.542;2023-05-14T00:02:23;99461.25;;;9.86;55.75
70952;BME280;69214;55.880;37.542;2023-05-14T00:04:48;99471.09;;;9.87;55.60
70952;BME280;69214;55.880;37.542;2023-05-14T00:07:14;99470.50;;;9.85;55.52
70952;BME280;69214;55.880;37.542;2023-05-14T00:09:41;99475.81;;;9.80;54.93
70952;BME280;69214;55.880;37.542;2023-05-14T00:12:07;99472.91;;;9.74;55.44
70952;BME280;69214;55.880;37.542;2023-05-14T00:14:33;99472.91;;;9.74;55.25
70952;BME280;69214;55.880;37.542;2023-05-14T00:16:59;99478.22;;;9.69;55.28
70952;BME280;69214;55.880;37.542;2023-05-14T00:19:26;99478.06;;;9.64;55.67
70952;BME280;69214;55.880;37.542;2023-05-14T00:21:52;99468.28;;;9.57;56.57
70952;BME280;69214;55.880;37.542;2023-05-14T00:24:18;99462.91;;;9.50;55.87
70952;BME280;69214;55.880;37.542;2023-05-14T00:26:44;99471.22;;;9.55;55.88
70952;BME280;69214;55.880;37.542;2023-05-14T00:29:09;99473.81;;;9.50;57.08
70952;BME280;69214;55.880;37.542;2023-05-14T00:31:35;99456.53;;;9.38;55.98
70952;BME280;69214;55.880;37.542;2023-05-14T00:34:02;99465.09;;;9.41;56.32
70952;BME280;69214;55.880;37.542;2023-05-14T00:36:28;99480.44;;;9.36;57.41
70952;BME280;69214;55.880;37.542;2023-05-14T00:38:54;99475.22;;;9.34;57.67
70952;BME280;69214;55.880;37.542;2023-05-14T00:41:21;99481.94;;;9.32;56.55
70952;BME280;69214;55.880;37.542;2023-05-14T00:43:47;99483.22;;;9.29;57.16
70952;BME280;69214;55.880;37.542;2023-05-14T00:46:13;99483.88;;;9.25;56.98
70952;BME280;69214;55.880;37.542;2023-05-14T00:48:39;99480.53;;;9.23;56.83
70952;BME280;69214;55.880;37.542;2023-05-14T00:51:06;99493.56;;;9.21;56.66
70952;BME280;69214;55.880;37.542;2023-05-14T00:53:32;99477.94;;;9.09;58.02
70952;BME280;69214;55.880;37.542;2023-05-14T00:55:58;99487.94;;;9.16;57.34
70952;BME280;69214;55.880;37.542;2023-05-14T00:58:24;99488.78;;;9.16;57.61
70952;BME280;69214;55.880;37.542;2023-05-14T01:00:50;99460.22;;;9.00;57.99
70952;BME280;69214;55.880;37.542;2023-05-14T01:03:16;99486.72;;;9.12;57.23
70952;BME280;69214;55.880;37.542;2023-05-14T01:08:35;99490.94;;;9.07;55.93
70952;BME280;69214;55.880;37.542;2023-05-14T01:15:18;99492.25;;;8.98;54.34
70952;BME280;69214;55.880;37.542;2023-05-14T01:17:20;99493.31;;;8.97;57.34
70952;BME280;69214;55.880;37.542;2023-05-14T01:19:47;99495.41;;;8.95;57.31
70952;BME280;69214;55.880;37.542;2023-05-14T01:22:14;99495.41;;;8.95;57.51
70952;BME280;69214;55.880;37.542;2023-05-14T01:24:40;99488.34;;;8.88;57.91
70952;BME280;69214;55.880;37.542;2023-05-14T01:27:17;99494.19;;;8.91;55.18
70952;BME280;69214;55.880;37.542;2023-05-14T01:29:52;99492.91;;;8.94;56.87
70952;BME280;69214;55.880;37.542;2023-05-14T01:32:22;99506.47;;;9.00;58.20
70952;BME280;69214;55.880;37.542;2023-05-14T01:34:49;99499.59;;;8.98;57.94
70952;BME280;69214;55.880;37.542;2023-05-14T01:37:16;99489.53;;;8.98;58.08
70952;BME280;69214;55.880;37.542;2023-05-14T01:39:43;99497.22;;;9.08;57.73
70952;BME280;69214;55.880;37.542;2023-05-14T01:42:09;99508.88;;;9.15;57.45
70952;BME280;69214;55.880;37.542;2023-05-14T01:44:36;99512.22;;;9.17;58.64
70952;BME280;69214;55.880;37.542;2023-05-14T01:47:01;99464.03;;;8.93;58.36
70952;BME280;69214;55.880;37.542;2023-05-14T01:49:28;99497.78;;;9.17;56.89
70952;BME280;69214;55.880;37.542;2023-05-14T01:51:54;99511.09;;;9.25;58.07
70952;BME280;69214;55.880;37.542;2023-05-14T01:54:20;99516.34;;;9.26;57.59
70952;BME280;69214;55.880;37.542;2023-05-14T01:56:45;99517.78;;;9.29;58.07
70952;BME280;69214;55.880;37.542;2023-05-14T01:59:11;99521.72;;;9.33;58.24
70952;BME280;69214;55.880;37.542;2023-05-14T02:01:37;99522.13;;;9.36;57.93
70952;BME280;69214;55.880;37.542;2023-05-14T02:04:03;99515.06;;;9.29;57.64
70952;BME280;69214;55.880;37.542;2023-05-14T02:06:29;99525.22;;;9.40;57.96
70952;BME280;69214;55.880;37.542;2023-05-14T02:08:58;99525.63;;;9.44;56.85
70952;BME280;69214;55.880;37.542;2023-05-14T02:11:24;99522.88;;;9.44;58.21
70952;BME280;69214;55.880;37.542;2023-05-14T02:13:50;99489.94;;;9.27;58.62
70952;BME280;69214;55.880;37.542;2023-05-14T02:16:16;99528.28;;;9.50;58.18
70952;BME280;69214;55.880;37.542;2023-05-14T02:18:43;99526.16;;;9.52;58.76
70952;BME280;69214;55.880;37.542;2023-05-14T02:21:09;99529.94;;;9.51;57.55
70952;BME280;69214;55.880;37.542;2023-05-14T02:23:35;99530.56;;;9.53;57.86
70952;BME280;69214;55.880;37.542;2023-05-14T02:26:01;99527.22;;;9.51;58.26
70952;BME280;69214;55.880;37.542;2023-05-14T02:28:27;99534.06;;;9.60;58.26
70952;BME280;69214;55.880;37.542;2023-05-14T02:30:58;99540.50;;;9.66;57.07
70952;BME280;69214;55.880;37.542;2023-05-14T02:33:24;99539.44;;;9.67;57.96
70952;BME280;69214;55.880;37.542;2023-05-14T02:35:50;99541.09;;;9.68;58.23
70952;BME280;69214;55.880;37.542;2023-05-14T02:38:16;99530.66;;;9.65;58.05
70952;BME280;69214;55.880;37.542;2023-05-14T02:40:43;99532.94;;;9.68;57.65
70952;BME280;69214;55.880;37.542;2023-05-14T02:43:09;99536.66;;;9.73;59.03
70952;BME280;69214;55.880;37.542;2023-05-14T02:45:35;99539.75;;;9.77;58.79
70952;BME280;69214;55.880;37.542;2023-05-14T02:48:00;99543.47;;;9.83;58.20
70952;BME280;69214;55.880;37.542;2023-05-14T02:50:26;99546.59;;;10.04;58.17
70952;BME280;69214;55.880;37.542;2023-05-14T02:52:52;99533.91;;;10.95;55.94
70952;BME280;69214;55.880;37.542;2023-05-14T02:55:18;99533.75;;;12.77;51.94
70952;BME280;69214;55.880;37.542;2023-05-14T02:57:44;99539.66;;;14.53;48.38
70952;BME280;69214;55.880;37.542;2023-05-14T03:00:10;99522.75;;;15.79;44.51
70952;BME280;69214;55.880;37.542;2023-05-14T03:02:37;99537.50;;;16.05;44.27
70952;BME280;69214;55.880;37.542;2023-05-14T03:05:03;99520.47;;;15.07;45.53
70952;BME280;69214;55.880;37.542;2023-05-14T03:07:29;99537.69;;;14.10;47.72
70952;BME280;69214;55.880;37.542;2023-05-14T03:09:55;99548.00;;;14.03;48.78
70952;BME280;69214;55.880;37.542;2023-05-14T03:12:21;99548.16;;;15.00;46.92
70952;BME280;69214;55.880;37.542;2023-05-14T03:14:47;99546.28;;;16.49;43.95
70952;BME280;69214;55.880;37.542;2023-05-14T03:17:12;99540.81;;;17.83;41.64
70952;BME280;69214;55.880;37.542;2023-05-14T03:19:38;99527.34;;;19.20;38.96
70952;BME280;69214;55.880;37.542;2023-05-14T03:22:06;99535.44;;;20.43;37.13
70952;BME280;69214;55.880;37.542;2023-05-14T03:24:32;99546.78;;;21.64;35.46
70952;BME280;69214;55.880;37.542;2023-05-14T03:26:58;99544.94;;;22.66;34.00
70952;BME280;69214;55.880;37.542;2023-05-14T03:29:23;99555.44;;;23.10;33.05
70952;BME280;69214;55.880;37.542;2023-05-14T03:31:49;99550.84;;;23.27;32.73
70952;BME280;69214;55.880;37.542;2023-05-14T03:34:15;99544.50;;;23.13;33.01
70952;BME280;69214;55.880;37.542;2023-05-14T03:36:41;99554.13;;;23.43;32.54
70952;BME280;69214;55.880;37.542;2023-05-14T03:39:07;99550.50;;;24.32;31.52
70952;BME280;69214;55.880;37.542;2023-05-14T03:41:34;99557.06;;;25.15;30.33
70952;BME280;69214;55.880;37.542;2023-05-14T03:44:00;99554.19;;;26.36;29.41
70952;BME280;69214;55.880;37.542;2023-05-14T03:46:26;99553.44;;;27.24;27.69
70952;BME280;69214;55.880;37.542;2023-05-14T03:48:54;99569.41;;;26.94;27.89
70952;BME280;69214;55.880;37.542;2023-05-14T03:51:20;99564.97;;;26.93;28.20
70952;BME280;69214;55.880;37.542;2023-05-14T03:53:46;99561.56;;;27.38;27.43
70952;BME280;69214;55.880;37.542;2023-05-14T03:56:12;99572.00;;;27.79;27.29
70952;BME280;69214;55.880;37.542;2023-05-14T03:58:38;99558.22;;;28.19;26.40
70952;BME280;69214;55.880;37.542;2023-05-14T04:01:05;99556.94;;;28.74;25.64
70952;BME280;69214;55.880;37.542;2023-05-14T04:03:30;99556.88;;;29.59;24.73
70952;BME280;69214;55.880;37.542;2023-05-14T04:05:56;99571.06;;;29.63;24.74
70952;BME280;69214;55.880;37.542;2023-05-14T04:08:22;99562.25;;;29.92;24.48
70952;BME280;69214;55.880;37.542;2023-05-14T04:10:49;99566.00;;;29.96;24.34
70952;BME280;69214;55.880;37.542;2023-05-14T04:13:14;99579.72;;;30.26;23.91
70952;BME280;69214;55.880;37.542;2023-05-14T04:15:40;99575.16;;;30.97;23.04
70952;BME280;69214;55.880;37.542;2023-05-14T04:18:06;99575.13;;;31.47;22.90
70952;BME280;69214;55.880;37.542;2023-05-14T04:20:35;99558.91;;;31.79;24.05
70952;BME280;69214;55.880;37.542;2023-05-14T04:23:01;99567.59;;;31.90;22.18
70952;BME280;69214;55.880;37.542;2023-05-14T04:25:27;99560.25;;;32.24;21.99
70952;BME280;69214;55.880;37.542;2023-05-14T04:27:53;99576.22;;;32.16;22.17
70952;BME280;69214;55.880;37.542;2023-05-14T04:30:19;99568.28;;;31.83;22.15
70952;BME280;69214;55.880;37.542;2023-05-14T04:32:45;99572.00;;;31.87;22.23
70952;BME280;69214;55.880;37.542;2023-05-14T04:35:11;99569.19;;;32.49;21.41
70952;BME280;69214;55.880;37.542;2023-05-14T04:37:38;99565.97;;;32.96;20.90
70952;BME280;69214;55.880;37.542;2023-05-14T04:40:06;99580.56;;;32.98;22.15
70952;BME280;69214;55.880;37.542;2023-05-14T04:42:32;99579.22;;;33.41;20.95
70952;BME280;69214;55.880;37.542;2023-05-14T04:44:58;99570.44;;;33.24;20.95
70952;BME280;69214;55.880;37.542;2023-05-14T04:47:24;99571.03;;;33.33;20.57
70952;BME280;69214;55.880;37.542;2023-05-14T04:49:51;99576.69;;;34.26;20.21
70952;BME280;69214;55.880;37.542;2023-05-14T04:52:16;99586.25;;;34.48;19.39
70952;BME280;69214;55.880;37.542;2023-05-14T04:54:42;99586.03;;;34.67;19.72
70952;BME280;69214;55.880;37.542;2023-05-14T04:57:08;99581.00;;;35.38;19.42
70952;BME280;69214;55.880;37.542;2023-05-14T04:59:34;99585.13;;;36.67;18.04
70952;BME280;69214;55.880;37.542;2023-05-14T05:02:00;99589.94;;;37.87;17.11
70952;BME280;69214;55.880;37.542;2023-05-14T05:04:26;99587.50;;;38.66;17.27
70952;BME280;69214;55.880;37.542;2023-05-14T05:06:52;99576.59;;;39.50;16.35
70952;BME280;69214;55.880;37.542;2023-05-14T05:09:18;99574.66;;;40.42;15.56
70952;BME280;69214;55.880;37.542;2023-05-14T05:11:43;99560.06;;;40.87;15.13
70952;BME280;69214;55.880;37.542;2023-05-14T05:14:09;99551.47;;;40.33;14.89
70952;BME280;69214;55.880;37.542;2023-05-14T05:16:35;99569.69;;;39.82;15.42
70952;BME280;69214;55.880;37.542;2023-05-14T05:19:01;99566.19;;;39.67;15.32
70952;BME280;69214;55.880;37.542;2023-05-14T05:21:27;99578.34;;;38.89;15.13
70952;BME280;69214;55.880;37.542;2023-05-14T05:23:53;99578.34;;;38.30;16.31
70952;BME280;69214;55.880;37.542;2023-05-14T05:26:19;99570.25;;;38.84;15.42
70952;BME280;69214;55.880;37.542;2023-05-14T05:28:47;99578.53;;;38.68;15.29
70952;BME280;69214;55.880;37.542;2023-05-14T05:31:13;99549.28;;;37.62;16.41
70952;BME280;69214;55.880;37.542;2023-05-14T05:33:39;99568.91;;;37.24;16.79
70952;BME280;69214;55.880;37.542;2023-05-14T05:36:05;99570.03;;;37.63;16.54
70952;BME280;69214;55.880;37.542;2023-05-14T05:38:31;99570.88;;;39.09;15.82
70952;BME280;69214;55.880;37.542;2023-05-14T05:40:56;99550.19;;;40.65;14.35
70952;BME280;69214;55.880;37.542;2023-05-14T05:43:22;99565.59;;;41.84;14.04
70952;BME280;69214;55.880;37.542;2023-05-14T05:45:48;99562.78;;;43.21;13.51
70952;BME280;69214;55.880;37.542;2023-05-14T05:48:14;99561.41;;;44.00;13.19
70952;BME280;69214;55.880;37.542;2023-05-14T05:50:40;99569.66;;;44.27;12.82
70952;BME280;69214;55.880;37.542;2023-05-14T05:53:05;99568.72;;;43.30;12.62
70952;BME280;69214;55.880;37.542;2023-05-14T05:55:31;99560.19;;;42.26;13.46
70952;BME280;69214;55.880;37.542;2023-05-14T05:57:57;99561.72;;;42.66;13.65
70952;BME280;69214;55.880;37.542;2023-05-14T06:00:23;99550.50;;;43.37;12.69
70952;BME280;69214;55.880;37.542;2023-05-14T06:02:51;99569.16;;;42.64;13.24
70952;BME280;69214;55.880;37.542;2023-05-14T06:05:17;99563.69;;;41.78;13.79
70952;BME280;69214;55.880;37.542;2023-05-14T06:07:44;99545.44;;;40.55;14.06
70952;BME280;69214;55.880;37.542;2023-05-14T06:10:09;99561.16;;;38.96;14.93
70952;BME280;69214;55.880;37.542;2023-05-14T06:12:35;99552.75;;;38.19;15.75
70952;BME280;69214;55.880;37.542;2023-05-14T06:15:01;99549.75;;;37.50;15.52
70952;BME280;69214;55.880;37.542;2023-05-14T06:17:32;99551.00;;;36.46;16.47
70952;BME280;69214;55.880;37.542;2023-05-14T06:19:58;99529.47;;;35.36;16.98
70952;BME280;69214;55.880;37.542;2023-05-14T06:22:24;99547.25;;;36.06;16.79
70952;BME280;69214;55.880;37.542;2023-05-14T06:24:50;99548.59;;;36.80;16.10
70952;BME280;69214;55.880;37.542;2023-05-14T06:27:16;99534.34;;;37.08;15.75
70952;BME280;69214;55.880;37.542;2023-05-14T06:29:42;99541.28;;;36.86;15.97
70952;BME280;69214;55.880;37.542;2023-05-14T06:32:07;99537.59;;;37.21;15.69
70952;BME280;69214;55.880;37.542;2023-05-14T06:34:34;99535.09;;;38.39;14.88
70952;BME280;69214;55.880;37.542;2023-05-14T06:37:00;99548.88;;;39.06;14.49
70952;BME280;69214;55.880;37.542;2023-05-14T06:39:28;99551.28;;;40.17;13.99
70952;BME280;69214;55.880;37.542;2023-05-14T06:41:54;99530.81;;;40.49;13.55
70952;BME280;69214;55.880;37.542;2023-05-14T06:44:22;99554.41;;;41.30;13.41
70952;BME280;69214;55.880;37.542;2023-05-14T06:46:48;99536.84;;;40.82;12.89
70952;BME280;69214;55.880;37.542;2023-05-14T06:49:14;99552.63;;;37.43;15.00
70952;BME280;69214;55.880;37.542;2023-05-14T06:51:41;99566.22;;;34.71;17.48
70952;BME280;69214;55.880;37.542;2023-05-14T06:54:07;99546.19;;;34.50;17.23
70952;BME280;69214;55.880;37.542;2023-05-14T06:56:33;99550.47;;;34.73;17.09
70952;BME280;69214;55.880;37.542;2023-05-14T06:58:59;99551.88;;;34.94;16.95
70952;BME280;69214;55.880;37.542;2023-05-14T07:01:25;99557.47;;;35.38;16.91
70952;BME280;69214;55.880;37.542;2023-05-14T07:03:51;99553.47;;;34.14;16.97
70952;BME280;69214;55.880;37.542;2023-05-14T07:06:17;99538.63;;;32.77;18.44
70952;BME280;69214;55.880;37.542;2023-05-14T07:08:43;99559.38;;;31.46;19.39
70952;BME280;69214;55.880;37.542;2023-05-14T07:11:12;99552.03;;;29.72;20.63
70952;BME280;69214;55.880;37.542;2023-05-14T07:13:39;99563.97;;;27.48;22.42
70952;BME280;69214;55.880;37.542;2023-05-14T07:16:06;99566.78;;;25.27;25.16
70952;BME280;69214;55.880;37.542;2023-05-14T07:18:34;99571.66;;;23.44;27.45
70952;BME280;69214;55.880;37.542;2023-05-14T07:21:00;99566.34;;;22.38;28.72
70952;BME280;69214;55.880;37.542;2023-05-14T07:23:26;99582.09;;;21.96;28.92
70952;BME280;69214;55.880;37.542;2023-05-14T07:25:52;99575.44;;;21.78;29.16
70952;BME280;69214;55.880;37.542;2023-05-14T07:28:18;99586.94;;;21.72;29.17
70952;BME280;69214;55.880;37.542;2023-05-14T07:30:45;99581.63;;;21.38;28.29
70952;BME280;69214;55.880;37.542;2023-05-14T07:33:11;99593.44;;;20.82;29.61
70952;BME280;69214;55.880;37.542;2023-05-14T07:35:37;99592.66;;;20.28;29.73
70952;BME280;69214;55.880;37.542;2023-05-14T07:38:02;99580.41;;;20.05;30.06
70952;BME280;69214;55.880;37.542;2023-05-14T07:40:30;99596.72;;;20.07;30.75
70952;BME280;69214;55.880;37.542;2023-05-14T07:42:56;99589.44;;;19.87;31.02
70952;BME280;69214;55.880;37.542;2023-05-14T07:45:22;99591.22;;;19.73;31.26
70952;BME280;69214;55.880;37.542;2023-05-14T07:47:48;99594.81;;;19.73;31.81
70952;BME280;69214;55.880;37.542;2023-05-14T07:50:17;99577.50;;;20.74;29.96
70952;BME280;69214;55.880;37.542;2023-05-14T07:52:44;99592.78;;;22.95;27.61
70952;BME280;69214;55.880;37.542;2023-05-14T07:55:11;99584.00;;;24.10;26.27
70952;BME280;69214;55.880;37.542;2023-05-14T07:57:37;99566.47;;;24.40;25.83
70952;BME280;69214;55.880;37.542;2023-05-14T08:00:04;99567.38;;;24.05;25.41
70952;BME280;69214;55.880;37.542;2023-05-14T08:02:38;99590.47;;;23.24;26.60
70952;BME280;69214;55.880;37.542;2023-05-14T08:05:04;99573.94;;;22.18;27.93
70952;BME280;69214;55.880;37.542;2023-05-14T08:07:31;99600.69;;;21.63;28.79
70952;BME280;69214;55.880;37.542;2023-05-14T08:09:58;99602.78;;;21.33;29.88
70952;BME280;69214;55.880;37.542;2023-05-14T08:12:25;99592.13;;;20.79;30.64
70952;BME280;69214;55.880;37.542;2023-05-14T08:14:54;99597.94;;;20.25;30.83
70952;BME280;69214;55.880;37.542;2023-05-14T08:17:20;99589.22;;;19.79;31.93
70952;BME280;69214;55.880;37.542;2023-05-14T08:19:46;99600.19;;;19.55;32.38
70952;BME280;69214;55.880;37.542;2023-05-14T08:22:12;99603.25;;;19.53;32.53
70952;BME280;69214;55.880;37.542;2023-05-14T08:24:38;99604.81;;;19.69;32.60
70952;BME280;69214;55.880;37.542;2023-05-14T08:27:04;99597.06;;;20.00;32.33
70952;BME280;69214;55.880;37.542;2023-05-14T08:29:30;99599.78;;;20.40;31.22
70952;BME280;69214;55.880;37.542;2023-05-14T08:31:55;99594.78;;;20.65;30.89
70952;BME280;69214;55.880;37.542;2023-05-14T08:34:21;99590.28;;;20.46;30.91
70952;BME280;69214;55.880;37.542;2023-05-14T08:36:47;99591.88;;;20.23;31.82
70952;BME280;69214;55.880;37.542;2023-05-14T08:39:13;99593.00;;;20.22;32.25
70952;BME280;69214;55.880;37.542;2023-05-14T08:41:39;99579.13;;;20.22;32.26
70952;BME280;69214;55.880;37.542;2023-05-14T08:44:08;99595.81;;;20.17;32.04
70952;BME280;69214;55.880;37.542;2023-05-14T08:46:37;99580.50;;;20.24;32.08
70952;BME280;69214;55.880;37.542;2023-05-14T08:49:13;99598.94;;;20.39;31.27
70952;BME280;69214;55.880;37.542;2023-05-14T08:51:42;99594.00;;;20.31;31.75
70952;BME280;69214;55.880;37.542;2023-05-14T08:54:09;99590.34;;;20.41;31.85
70952;BME280;69214;55.880;37.542;2023-05-14T08:56:39;99589.69;;;20.49;31.85
70952;BME280;69214;55.880;37.542;2023-05-14T08:59:06;99588.56;;;20.21;31.18
70952;BME280;69214;55.880;37.542;2023-05-14T09:01:32;99583.00;;;19.58;31.95
70952;BME280;69214;55.880;37.542;2023-05-14T09:03:58;99599.88;;;19.12;32.94
70952;BME280;69214;55.880;37.542;2023-05-14T09:06:26;99595.59;;;18.81;33.24
70952;BME280;69214;55.880;37.542;2023-05-14T09:08:52;99584.84;;;18.59;33.29
70952;BME280;69214;55.880;37.542;2023-05-14T09:11:18;99595.59;;;18.81;33.02
70952;BME280;69214;55.880;37.542;2023-05-14T09:13:44;99599.84;;;19.17;32.80
70952;BME280;69214;55.880;37.542;2023-05-14T09:16:10;99583.94;;;19.38;32.38
70952;BME280;69214;55.880;37.542;2023-05-14T09:18:36;99588.88;;;19.46;32.38
70952;BME280;69214;55.880;37.542;2023-05-14T09:21:02;99592.78;;;19.40;32.07
70952;BME280;69214;55.880;37.542;2023-05-14T09:23:31;99577.69;;;19.22;31.41
70952;BME280;69214;55.880;37.542;2023-05-14T09:26:04;99592.91;;;19.20;31.98
70952;BME280;69214;55.880;37.542;2023-05-14T09:28:30;99597.69;;;19.09;33.07
70952;BME280;69214;55.880;37.542;2023-05-14T09:30:56;99589.97;;;19.01;33.62
70952;BME280;69214;55.880;37.542;2023-05-14T09:33:28;99583.81;;;19.14;32.17
70952;BME280;69214;55.880;37.542;2023-05-14T09:35:57;99580.81;;;19.55;31.80
70952;BME280;69214;55.880;37.542;2023-05-14T09:38:30;99586.63;;;19.92;31.09
70952;BME280;69214;55.880;37.542;2023-05-14T09:40:57;99585.28;;;19.85;31.72
70952;BME280;69214;55.880;37.542;2023-05-14T09:43:23;99591.78;;;19.70;31.95
70952;BME280;69214;55.880;37.542;2023-05-14T09:45:48;99586.66;;;19.48;32.84
70952;BME280;69214;55.880;37.542;2023-05-14T09:48:15;99591.84;;;19.16;33.05
70952;BME280;69214;55.880;37.542;2023-05-14T09:50:42;99585.34;;;18.86;33.48
70952;BME280;69214;55.880;37.542;2023-05-14T09:53:08;99586.72;;;18.89;33.42
70952;BME280;69214;55.880;37.542;2023-05-14T09:55:35;99589.66;;;19.07;33.07
70952;BME280;69214;55.880;37.542;2023-05-14T09:58:01;99556.16;;;19.14;33.20
70952;BME280;69214;55.880;37.542;2023-05-14T10:00:29;99572.94;;;19.28;32.63
70952;BME280;69214;55.880;37.542;2023-05-14T10:02:57;99575.97;;;19.31;32.36
70952;BME280;69214;55.880;37.542;2023-05-14T10:05:23;99572.69;;;19.24;32.86
70952;BME280;69214;55.880;37.542;2023-05-14T10:07:53;99570.19;;;19.28;32.34
70952;BME280;69214;55.880;37.542;2023-05-14T10:10:25;99577.44;;;19.19;32.57
70952;BME280;69214;55.880;37.542;2023-05-14T10:12:59;99563.44;;;19.00;32.65
70952;BME280;69214;55.880;37.542;2023-05-14T10:15:41;99577.59;;;18.88;32.62
70952;BME280;69214;55.880;37.542;2023-05-14T10:18:15;99573.81;;;18.64;33.01
70952;BME280;69214;55.880;37.542;2023-05-14T10:20:43;99569.94;;;18.65;33.09
70952;BME280;69214;55.880;37.542;2023-05-14T10:23:12;99580.69;;;18.71;33.52
70952;BME280;69214;55.880;37.542;2023-05-14T10:25:39;99582.03;;;18.84;33.16
70952;BME280;69214;55.880;37.542;2023-05-14T10:28:05;99593.81;;;19.05;33.43
70952;BME280;69214;55.880;37.542;2023-05-14T10:30:31;99581.84;;;19.20;32.96
70952;BME280;69214;55.880;37.542;2023-05-14T10:33:11;99581.56;;;19.21;33.04
70952;BME280;69214;55.880;37.542;2023-05-14T10:35:50;99579.78;;;18.91;33.77
70952;BME280;69214;55.880;37.542;2023-05-14T10:38:16;99582.03;;;18.84;33.98
70952;BME280;69214;55.880;37.542;2023-05-14T10:40:46;99576.63;;;19.13;33.24
70952;BME280;69214;55.880;37.542;2023-05-14T10:43:13;99574.53;;;19.39;32.61
70952;BME280;69214;55.880;37.542;2023-05-14T10:45:42;99573.13;;;19.41;32.54
70952;BME280;69214;55.880;37.542;2023-05-14T10:48:08;99578.63;;;19.47;33.41
70952;BME280;69214;55.880;37.542;2023-05-14T10:50:34;99580.81;;;19.50;33.07
70952;BME280;69214;55.880;37.542;2023-05-14T10:53:01;99562.47;;;19.20;33.67
70952;BME280;69214;55.880;37.542;2023-05-14T10:55:27;99565.66;;;18.98;34.23
70952;BME280;69214;55.880;37.542;2023-05-14T10:57:53;99566.94;;;19.16;33.82
70952;BME280;69214;55.880;37.542;2023-05-14T11:00:19;99566.78;;;19.41;33.43
70952;BME280;69214;55.880;37.542;2023-05-14T11:02:45;99564.19;;;19.60;33.55
70952;BME280;69214;55.880;37.542;2023-05-14T11:05:15;99567.81;;;19.89;32.60
70952;BME280;69214;55.880;37.542;2023-05-14T11:07:44;99562.75;;;20.25;31.92
70952;BME280;69214;55.880;37.542;2023-05-14T11:10:18;99563.00;;;20.29;31.81
70952;BME280;69214;55.880;37.542;2023-05-14T11:12:46;99564.66;;;20.01;31.73
70952;BME280;69214;55.880;37.542;2023-05-14T11:15:16;99575.41;;;19.73;32.67
70952;BME280;69214;55.880;37.542;2023-05-14T11:17:43;99556.38;;;19.67;32.65
70952;BME280;69214;55.880;37.542;2023-05-14T11:20:10;99566.97;;;19.55;32.64
70952;BME280;69214;55.880;37.542;2023-05-14T11:22:38;99554.03;;;19.40;32.74
70952;BME280;69214;55.880;37.542;2023-05-14T11:25:05;99564.34;;;19.29;33.10
70952;BME280;69214;55.880;37.542;2023-05-14T11:27:33;99565.72;;;19.32;32.97
70952;BME280;69214;55.880;37.542;2023-05-14T11:29:59;99560.75;;;19.29;33.46
70952;BME280;69214;55.880;37.542;2023-05-14T11:32:26;99559.63;;;19.35;33.11
70952;BME280;69214;55.880;37.542;2023-05-14T11:34:52;99558.94;;;19.58;33.06
70952;BME280;69214;55.880;37.542;2023-05-14T11:37:18;99557.34;;;19.81;32.79
70952;BME280;69214;55.880;37.542;2023-05-14T11:39:49;99555.66;;;19.85;32.45
70952;BME280;69214;55.880;37.542;2023-05-14T11:42:15;99570.53;;;19.94;32.67
70952;BME280;69214;55.880;37.542;2023-05-14T11:44:46;99564.25;;;19.84;32.85
70952;BME280;69214;55.880;37.542;2023-05-14T11:47:14;99544.88;;;19.84;32.75
70952;BME280;69214;55.880;37.542;2023-05-14T11:49:40;99557.13;;;20.07;32.29
70952;BME280;69214;55.880;37.542;2023-05-14T11:52:08;99555.81;;;19.99;32.29
70952;BME280;69214;55.880;37.542;2023-05-14T11:54:40;99555.75;;;19.75;32.48
70952;BME280;69214;55.880;37.542;2023-05-14T11:57:15;99549.31;;;19.46;32.77
70952;BME280;69214;55.880;37.542;2023-05-14T11:59:42;99559.47;;;19.16;32.84
70952;BME280;69214;55.880;37.542;2023-05-14T12:02:13;99561.50;;;19.00;33.11
70952;BME280;69214;55.880;37.542;2023-05-14T12:04:40;99554.09;;;18.86;33.35
70952;BME280;69214;55.880;37.542;2023-05-14T12:07:11;99559.91;;;18.84;32.96
70952;BME280;69214;55.880;37.542;2023-05-14T12:09:44;99546.44;;;18.67;33.87
70952;BME280;69214;55.880;37.542;2023-05-14T12:12:19;99540.09;;;18.57;33.67
70952;BME280;69214;55.880;37.542;2023-05-14T12:14:45;99545.31;;;18.73;34.26
70952;BME280;69214;55.880;37.542;2023-05-14T12:17:19;99549.03;;;19.03;33.66
70952;BME280;69214;55.880;37.542;2023-05-14T12:19:52;99571.13;;;19.08;32.93
70952;BME280;69214;55.880;37.542;2023-05-14T12:22:21;99549.59;;;19.00;33.24
70952;BME280;69214;55.880;37.542;2023-05-14T12:24:55;99563.16;;;18.96;33.68
70952;BME280;69214;55.880;37.542;2023-05-14T12:27:22;99547.78;;;18.75;34.80
70952;BME280;69214;55.880;37.542;2023-05-14T12:30:02;99560.81;;;18.64;33.75
70952;BME280;69214;55.880;37.542;2023-05-14T12:32:36;99559.44;;;18.62;34.34
70952;BME280;69214;55.880;37.542;2023-05-14T12:35:03;99563.09;;;18.37;35.50
70952;BME280;69214;55.880;37.542;2023-05-14T12:37:31;99564.50;;;18.24;35.45
70952;BME280;69214;55.880;37.542;2023-05-14T12:39:57;99556.53;;;18.07;35.54
70952;BME280;69214;55.880;37.542;2023-05-14T12:42:23;99551.56;;;18.04;36.04
70952;BME280;69214;55.880;37.542;2023-05-14T12:44:49;99555.69;;;18.12;36.05
70952;BME280;69214;55.880;37.542;2023-05-14T12:47:15;99557.31;;;18.23;35.76
70952;BME280;69214;55.880;37.542;2023-05-14T12:49:41;99559.50;;;18.36;36.18
70952;BME280;69214;55.880;37.542;2023-05-14T12:52:07;99568.88;;;18.40;35.82
70952;BME280;69214;55.880;37.542;2023-05-14T12:54:33;99557.56;;;18.37;35.60
70952;BME280;69214;55.880;37.542;2023-05-14T12:56:59;99554.53;;;18.33;35.72
70952;BME280;69214;55.880;37.542;2023-05-14T12:59:26;99557.59;;;18.27;36.16